createdAt,value
2019-03-29T00:00:07.491Z,10.50
2019-03-29T00:02:35.936Z,10.50
2019-03-29T00:05:04.667Z,10.50
2019-03-29T00:07:39.425Z,10.50
2019-03-29T00:10:04.121Z,10.40
2019-03-29T00:12:32.564Z,10.40
2019-03-29T00:15:01.019Z,10.50
2019-03-29T00:17:29.479Z,10.40
2019-03-29T00:19:57.937Z,10.40
2019-03-29T00:22:26.378Z,10.40
2019-03-29T00:24:54.813Z,10.40
2019-03-29T00:27:23.250Z,10.40
2019-03-29T00:29:51.707Z,10.40
2019-03-29T00:32:20.159Z,10.40
2019-03-29T00:34:48.596Z,10.40
2019-03-29T00:37:17.927Z,10.40
2019-03-29T00:39:46.562Z,10.40
2019-03-29T00:42:15.019Z,10.40
2019-03-29T00:44:43.465Z,10.40
2019-03-29T00:47:14.826Z,10.40
2019-03-29T00:49:43.280Z,10.30
2019-03-29T00:52:11.726Z,10.40
2019-03-29T00:54:40.183Z,10.30
2019-03-29T00:57:09.851Z,10.30
2019-03-29T00:59:38.341Z,10.30
2019-03-29T01:02:06.783Z,10.30
2019-03-29T01:04:35.235Z,10.30
2019-03-29T01:07:04.827Z,10.20
2019-03-29T01:09:33.402Z,10.20
2019-03-29T01:12:01.869Z,10.20
2019-03-29T01:14:30.322Z,10.20
2019-03-29T01:16:58.780Z,10.30
2019-03-29T01:19:27.210Z,10.20
2019-03-29T01:21:55.662Z,10.20
2019-03-29T01:24:24.097Z,10.20
2019-03-29T01:26:53.113Z,10.20
2019-03-29T01:29:21.764Z,10.20
2019-03-29T01:31:50.192Z,10.20
2019-03-29T01:34:18.646Z,10.20
2019-03-29T01:36:47.098Z,10.20
2019-03-29T01:39:16.860Z,10.20
2019-03-29T01:41:45.576Z,10.20
2019-03-29T01:44:14.022Z,10.20
2019-03-29T01:46:42.465Z,10.20
2019-03-29T01:49:10.911Z,10.20
2019-03-29T01:51:39.350Z,10.20
2019-03-29T01:54:07.787Z,10.20
2019-03-29T01:56:37.087Z,10.20
2019-03-29T01:59:06.646Z,10.20
2019-03-29T02:01:35.103Z,10.20
2019-03-29T02:04:08.042Z,10.10
2019-03-29T02:06:38.232Z,10.10
2019-03-29T02:09:07.107Z,10.10
2019-03-29T02:11:35.555Z,10.00
2019-03-29T02:14:04.003Z,10.00
2019-03-29T02:16:33.143Z,9.90
2019-03-29T02:19:01.582Z,9.90
2019-03-29T02:21:30.495Z,9.80
2019-03-29T02:23:58.949Z,9.80
2019-03-29T02:26:27.376Z,9.70
2019-03-29T02:28:55.810Z,9.70
2019-03-29T02:31:28.802Z,9.60
2019-03-29T02:33:57.047Z,9.50
2019-03-29T02:36:25.559Z,9.50
2019-03-29T02:38:56.047Z,9.40
2019-03-29T02:41:24.183Z,9.30
2019-03-29T02:43:52.692Z,9.20
2019-03-29T02:46:21.118Z,9.10
2019-03-29T02:48:49.557Z,9.10
2019-03-29T02:51:18.074Z,9.00
2019-03-29T02:53:46.525Z,8.90
2019-03-29T02:56:14.960Z,8.90
2019-03-29T02:58:43.398Z,8.80
2019-03-29T03:01:11.845Z,8.80
2019-03-29T03:03:41.741Z,8.70
2019-03-29T03:06:12.386Z,8.70
2019-03-29T03:08:43.866Z,8.60
2019-03-29T03:11:12.312Z,8.60
2019-03-29T03:13:40.747Z,8.50
2019-03-29T03:16:09.195Z,8.40
2019-03-29T03:18:37.633Z,8.40
2019-03-29T03:21:07.708Z,8.30
2019-03-29T03:23:36.158Z,8.30
2019-03-29T03:26:04.585Z,8.20
2019-03-29T03:28:33.032Z,8.10
2019-03-29T03:31:01.486Z,8.10
2019-03-29T03:33:29.986Z,8.00
2019-03-29T03:35:58.415Z,7.90
2019-03-29T03:38:28.956Z,7.90
2019-03-29T03:40:57.655Z,7.80
2019-03-29T03:43:26.244Z,7.80
2019-03-29T03:45:54.688Z,7.70
2019-03-29T03:48:23.123Z,7.70
2019-03-29T03:50:52.085Z,7.60
2019-03-29T03:53:20.533Z,7.60
2019-03-29T03:55:49.252Z,7.50
2019-03-29T03:58:19.301Z,7.50
2019-03-29T04:00:52.858Z,7.40
2019-03-29T04:03:21.957Z,7.40
2019-03-29T04:05:50.770Z,7.40
2019-03-29T04:08:19.763Z,7.30
2019-03-29T04:10:48.263Z,7.30
2019-03-29T04:13:16.708Z,7.30
2019-03-29T04:15:45.155Z,7.20
2019-03-29T04:18:15.994Z,7.20
2019-03-29T04:20:43.831Z,7.10
2019-03-29T04:23:12.347Z,7.10
2019-03-29T04:25:40.796Z,7.00
2019-03-29T04:28:09.247Z,7.00
2019-03-29T04:30:37.681Z,6.90
2019-03-29T04:33:10.581Z,6.80
2019-03-29T04:35:36.303Z,6.80
2019-03-29T04:38:04.808Z,6.70
2019-03-29T04:40:33.243Z,6.70
2019-03-29T04:43:01.686Z,6.60
2019-03-29T04:45:31.671Z,6.60
2019-03-29T04:48:00.098Z,6.50
2019-03-29T04:50:28.555Z,6.50
2019-03-29T04:52:56.980Z,6.40
2019-03-29T04:55:25.539Z,6.40
2019-03-29T04:57:54.292Z,6.30
2019-03-29T05:00:22.729Z,6.30
2019-03-29T05:02:51.180Z,6.30
2019-03-29T05:05:19.622Z,6.20
2019-03-29T05:07:48.139Z,6.10
2019-03-29T05:10:21.546Z,6.10
2019-03-29T05:12:49.239Z,6.10
2019-03-29T05:15:17.672Z,6.00
2019-03-29T05:17:46.123Z,6.00
2019-03-29T05:20:14.563Z,6.00
2019-03-29T05:22:42.990Z,6.00
2019-03-29T05:25:11.443Z,5.90
2019-03-29T05:27:39.973Z,5.90
2019-03-29T05:30:08.752Z,5.80
2019-03-29T05:32:37.200Z,5.80
2019-03-29T05:35:06.770Z,5.80
2019-03-29T05:37:35.223Z,5.80
2019-03-29T05:40:06.278Z,5.80
2019-03-29T05:42:34.731Z,5.80
2019-03-29T05:45:04.053Z,5.80
2019-03-29T05:47:32.475Z,5.80
2019-03-29T05:50:01.007Z,5.80
2019-03-29T05:52:29.441Z,5.80
2019-03-29T05:54:57.883Z,5.80
2019-03-29T05:57:26.342Z,5.80
2019-03-29T05:59:54.856Z,5.90
2019-03-29T06:02:23.314Z,5.90
2019-03-29T06:04:51.799Z,6.00
2019-03-29T06:07:20.243Z,6.00
2019-03-29T06:09:48.757Z,6.20
2019-03-29T06:12:17.186Z,6.60
2019-03-29T06:14:45.626Z,7.10
2019-03-29T06:17:14.080Z,7.50
2019-03-29T06:19:42.516Z,7.90
2019-03-29T06:22:10.960Z,8.40
2019-03-29T06:24:39.398Z,8.70
2019-03-29T06:27:07.849Z,9.10
2019-03-29T06:29:36.289Z,9.50
2019-03-29T06:32:04.730Z,9.90
2019-03-29T06:34:35.419Z,10.30
2019-03-29T06:37:04.709Z,10.60
2019-03-29T06:39:33.591Z,11.00
2019-03-29T06:42:02.034Z,11.40
2019-03-29T06:44:30.493Z,11.80
2019-03-29T06:46:58.940Z,12.10
2019-03-29T06:49:27.383Z,12.60
2019-03-29T06:51:55.834Z,12.90
2019-03-29T06:54:24.853Z,13.10
2019-03-29T06:56:54.998Z,13.40
2019-03-29T06:59:23.441Z,13.70
2019-03-29T07:01:51.899Z,13.90
2019-03-29T07:04:20.380Z,14.20
2019-03-29T07:06:48.901Z,14.30
2019-03-29T07:09:17.350Z,14.40
2019-03-29T07:11:45.791Z,14.40
2019-03-29T07:14:14.242Z,14.70
2019-03-29T07:16:42.674Z,14.80
2019-03-29T07:19:11.134Z,14.70
2019-03-29T07:21:45.456Z,14.70
2019-03-29T07:24:13.890Z,14.70
2019-03-29T07:26:42.341Z,14.80
2019-03-29T07:29:10.781Z,14.80
2019-03-29T07:31:39.238Z,14.80
2019-03-29T07:34:07.683Z,14.80
2019-03-29T07:36:36.131Z,14.70
2019-03-29T07:39:06.148Z,14.50
2019-03-29T07:41:34.602Z,14.70
2019-03-29T07:44:03.044Z,14.70
2019-03-29T07:46:32.405Z,14.90
2019-03-29T07:49:00.855Z,15.00
2019-03-29T07:51:29.294Z,15.10
2019-03-29T07:53:58.556Z,15.10
2019-03-29T07:56:27.977Z,15.30
2019-03-29T07:58:56.463Z,15.40
2019-03-29T08:01:24.907Z,15.60
2019-03-29T08:03:53.564Z,15.80
2019-03-29T08:06:22.085Z,15.90
2019-03-29T08:08:50.874Z,15.90
2019-03-29T08:11:26.136Z,16.00
2019-03-29T08:13:49.506Z,15.90
2019-03-29T08:16:18.019Z,15.90
2019-03-29T08:18:46.470Z,15.70
2019-03-29T08:21:14.942Z,15.50
2019-03-29T08:23:43.382Z,15.60
2019-03-29T08:26:11.835Z,15.40
2019-03-29T08:28:40.279Z,15.70
2019-03-29T08:31:08.732Z,15.50
2019-03-29T08:33:37.179Z,15.60
2019-03-29T08:36:06.204Z,15.80
2019-03-29T08:38:34.650Z,15.80
2019-03-29T08:41:03.095Z,15.90
2019-03-29T08:43:31.571Z,16.00
2019-03-29T08:46:00.063Z,16.10
2019-03-29T08:48:28.513Z,16.20
2019-03-29T08:50:56.950Z,16.30
2019-03-29T08:53:27.461Z,16.30
2019-03-29T08:55:55.589Z,16.30
2019-03-29T08:58:24.045Z,16.30
2019-03-29T09:00:52.466Z,16.40
2019-03-29T09:03:20.909Z,16.40
2019-03-29T09:05:50.994Z,16.30
2019-03-29T09:08:19.445Z,16.40
2019-03-29T09:10:47.958Z,16.60
2019-03-29T09:13:16.410Z,16.80
2019-03-29T09:15:44.851Z,16.90
2019-03-29T09:18:13.298Z,16.90
2019-03-29T09:20:42.119Z,16.80
2019-03-29T09:23:10.676Z,16.90
2019-03-29T09:25:40.633Z,17.10
2019-03-29T09:28:09.410Z,17.10
2019-03-29T09:30:37.869Z,17.10
2019-03-29T09:33:06.302Z,17.20
2019-03-29T09:35:34.832Z,17.20
2019-03-29T09:38:03.300Z,17.10
2019-03-29T09:40:31.754Z,17.20
2019-03-29T09:43:07.313Z,17.30
2019-03-29T09:45:30.434Z,17.40
2019-03-29T09:47:58.891Z,17.50
2019-03-29T09:50:28.672Z,17.70
2019-03-29T09:53:00.801Z,17.70
2019-03-29T09:55:29.658Z,17.70
2019-03-29T09:57:58.077Z,17.70
2019-03-29T10:00:28.532Z,17.70
2019-03-29T10:02:58.205Z,17.60
2019-03-29T10:05:26.664Z,17.70
2019-03-29T10:07:55.109Z,17.90
2019-03-29T10:10:23.575Z,17.90
2019-03-29T10:12:52.017Z,17.80
2019-03-29T10:15:20.465Z,17.70
2019-03-29T10:17:48.894Z,17.70
2019-03-29T10:20:17.364Z,17.60
2019-03-29T10:22:47.331Z,17.60
2019-03-29T10:25:19.607Z,17.60
2019-03-29T10:27:46.963Z,17.60
2019-03-29T10:30:18.473Z,17.60
2019-03-29T10:32:46.906Z,17.40
2019-03-29T10:35:15.363Z,17.60
2019-03-29T10:37:46.772Z,17.70
2019-03-29T10:40:15.224Z,17.70
2019-03-29T10:42:56.742Z,17.70
2019-03-29T10:45:13.873Z,17.80
2019-03-29T10:47:44.187Z,17.90
2019-03-29T10:50:12.600Z,18.10
2019-03-29T10:52:41.035Z,18.10
2019-03-29T10:55:09.635Z,18.30
2019-03-29T10:57:38.091Z,18.20
2019-03-29T11:00:10.129Z,18.20
2019-03-29T11:02:38.579Z,18.40
2019-03-29T11:05:07.355Z,18.60
2019-03-29T11:07:35.797Z,18.30
2019-03-29T11:10:05.988Z,18.50
2019-03-29T11:12:35.010Z,18.70
2019-03-29T11:15:06.721Z,18.80
2019-03-29T11:17:37.194Z,19.20
2019-03-29T11:20:05.883Z,19.30
2019-03-29T11:22:34.332Z,19.60
2019-03-29T11:25:11.315Z,19.70
2019-03-29T11:27:39.747Z,19.60
2019-03-29T11:30:08.277Z,19.70
2019-03-29T11:32:36.756Z,20.00
2019-03-29T11:35:05.510Z,19.90
2019-03-29T11:37:33.958Z,20.10
2019-03-29T11:40:02.472Z,20.10
2019-03-29T11:42:30.924Z,20.10
2019-03-29T11:44:59.442Z,20.10
2019-03-29T11:47:27.927Z,20.10
2019-03-29T11:49:57.823Z,20.10
2019-03-29T11:52:26.397Z,19.90
2019-03-29T11:54:54.845Z,20.00
2019-03-29T11:57:23.308Z,20.20
2019-03-29T11:59:51.823Z,20.30
2019-03-29T12:02:31.081Z,20.60
2019-03-29T12:04:50.583Z,20.60
2019-03-29T12:07:19.093Z,20.60
2019-03-29T12:09:47.539Z,20.70
2019-03-29T12:12:16.176Z,20.70
2019-03-29T12:14:44.616Z,20.80
2019-03-29T12:17:13.239Z,20.80
2019-03-29T12:19:41.695Z,21.00
2019-03-29T12:22:10.135Z,20.80
2019-03-29T12:24:38.591Z,21.10
2019-03-29T12:27:07.039Z,21.10
2019-03-29T12:29:35.495Z,21.20
2019-03-29T12:32:04.087Z,21.20
2019-03-29T12:34:32.536Z,21.20
2019-03-29T12:37:00.980Z,21.20
2019-03-29T12:39:29.429Z,20.90
2019-03-29T12:41:57.871Z,20.90
2019-03-29T12:44:26.317Z,20.90
2019-03-29T12:46:54.758Z,21.00
2019-03-29T12:49:23.203Z,20.80
2019-03-29T12:51:51.664Z,20.60
2019-03-29T12:54:20.118Z,20.30
2019-03-29T12:56:48.555Z,20.30
2019-03-29T12:59:17.183Z,20.30
2019-03-29T13:01:45.617Z,20.00
2019-03-29T13:04:14.072Z,20.10
2019-03-29T13:06:42.526Z,20.00
2019-03-29T13:09:11.790Z,20.00
2019-03-29T13:11:40.242Z,19.80
2019-03-29T13:14:10.670Z,19.70
2019-03-29T13:16:38.942Z,19.60
2019-03-29T13:19:07.385Z,19.50
2019-03-29T13:21:38.765Z,19.30
2019-03-29T13:24:06.126Z,19.20
2019-03-29T13:26:34.591Z,19.20
2019-03-29T13:29:06.031Z,19.20
2019-03-29T13:31:34.473Z,19.20
2019-03-29T13:34:02.924Z,19.20
2019-03-29T13:36:31.373Z,19.20
2019-03-29T13:38:59.810Z,19.20
2019-03-29T13:41:28.255Z,19.20
2019-03-29T13:43:56.720Z,19.30
2019-03-29T13:46:25.147Z,19.20
2019-03-29T13:48:53.585Z,19.10
2019-03-29T13:51:22.106Z,19.10
2019-03-29T13:53:50.534Z,19.20
2019-03-29T13:56:19.246Z,19.10
2019-03-29T13:58:47.687Z,19.10
2019-03-29T14:01:16.167Z,19.00
2019-03-29T14:03:44.606Z,18.70
2019-03-29T14:06:13.068Z,18.70
2019-03-29T14:08:41.497Z,18.80
2019-03-29T14:11:09.959Z,18.70
2019-03-29T14:13:38.420Z,18.70
2019-03-29T14:16:06.871Z,18.80
2019-03-29T14:18:35.322Z,18.80
2019-03-29T14:21:03.772Z,18.80
2019-03-29T14:23:32.214Z,18.80
2019-03-29T14:26:00.663Z,18.80
2019-03-29T14:28:29.107Z,18.70
2019-03-29T14:30:57.555Z,18.80
2019-03-29T14:33:26.006Z,18.80
2019-03-29T14:35:54.463Z,18.80
2019-03-29T14:38:22.911Z,18.70
2019-03-29T14:40:51.426Z,18.70
2019-03-29T14:43:19.881Z,18.70
2019-03-29T14:45:48.330Z,18.70
2019-03-29T14:48:16.775Z,18.60
2019-03-29T14:50:45.231Z,18.60
2019-03-29T14:53:13.683Z,18.60
2019-03-29T14:55:42.125Z,18.60
2019-03-29T14:58:11.539Z,18.60
2019-03-29T15:00:42.331Z,18.60
2019-03-29T15:03:11.507Z,18.50
2019-03-29T15:05:40.182Z,18.50
2019-03-29T15:08:08.766Z,18.30
2019-03-29T15:10:45.608Z,18.30
2019-03-29T15:13:12.879Z,18.20
2019-03-29T15:15:41.340Z,18.20
2019-03-29T15:18:09.786Z,18.10
2019-03-29T15:20:52.132Z,18.10
2019-03-29T15:23:08.397Z,18.00
2019-03-29T15:25:40.791Z,18.10
2019-03-29T15:28:09.459Z,18.10
2019-03-29T15:30:37.914Z,18.10
2019-03-29T15:33:08.805Z,18.10
2019-03-29T15:35:37.262Z,18.00
2019-03-29T15:38:05.717Z,18.00
2019-03-29T15:40:34.157Z,18.00
2019-03-29T15:43:02.607Z,18.00
2019-03-29T15:45:31.050Z,17.90
2019-03-29T15:47:59.494Z,17.90
2019-03-29T15:50:27.926Z,17.90
2019-03-29T15:52:56.388Z,17.90
2019-03-29T15:55:24.824Z,17.90
2019-03-29T15:57:55.791Z,17.90
2019-03-29T16:00:24.231Z,17.80
2019-03-29T16:02:52.684Z,17.70
2019-03-29T16:05:21.139Z,17.60
2019-03-29T16:07:49.662Z,17.60
2019-03-29T16:10:18.124Z,17.50
2019-03-29T16:12:46.655Z,17.50
2019-03-29T16:15:15.190Z,17.50
2019-03-29T16:17:43.627Z,17.40
2019-03-29T16:20:12.206Z,17.40
2019-03-29T16:22:40.650Z,17.30
2019-03-29T16:25:09.235Z,17.30
2019-03-29T16:27:37.695Z,17.30
2019-03-29T16:30:07.175Z,17.20
2019-03-29T16:32:38.114Z,17.10
2019-03-29T16:35:08.490Z,17.10
2019-03-29T16:37:36.947Z,17.00
2019-03-29T16:40:07.036Z,17.00
2019-03-29T16:42:35.746Z,17.00
2019-03-29T16:45:06.342Z,16.90
2019-03-29T16:47:34.790Z,16.90
2019-03-29T16:50:04.718Z,16.80
2019-03-29T16:52:33.238Z,16.80
2019-03-29T16:55:12.409Z,16.70
2019-03-29T16:57:31.939Z,16.70
2019-03-29T17:00:00.426Z,16.70
2019-03-29T17:02:28.946Z,16.60
2019-03-29T17:04:57.401Z,16.50
2019-03-29T17:07:25.928Z,16.40
2019-03-29T17:09:54.365Z,16.40
2019-03-29T17:12:22.812Z,16.30
2019-03-29T17:14:51.253Z,16.20
2019-03-29T17:17:21.495Z,16.10
2019-03-29T17:19:49.948Z,16.00
2019-03-29T17:22:18.391Z,16.00
2019-03-29T17:24:56.799Z,15.90
2019-03-29T17:27:19.775Z,15.80
2019-03-29T17:29:48.307Z,15.80
2019-03-29T17:32:16.740Z,15.70
2019-03-29T17:34:45.199Z,15.60
2019-03-29T17:37:13.642Z,15.50
2019-03-29T17:39:43.035Z,15.40
2019-03-29T17:42:11.492Z,15.40
2019-03-29T17:44:41.784Z,15.30
2019-03-29T17:47:10.241Z,15.20
2019-03-29T17:49:38.677Z,15.10
2019-03-29T17:52:07.127Z,15.00
2019-03-29T17:54:37.103Z,14.80
2019-03-29T17:57:05.551Z,14.80
2019-03-29T17:59:34.004Z,14.70
2019-03-29T18:02:09.273Z,14.50
2019-03-29T18:04:32.619Z,14.40
2019-03-29T18:07:01.070Z,14.30
2019-03-29T18:09:29.592Z,14.20
2019-03-29T18:11:58.043Z,14.10
2019-03-29T18:14:26.485Z,13.90
2019-03-29T18:16:54.929Z,13.80
2019-03-29T18:19:23.402Z,13.60
2019-03-29T18:21:51.890Z,13.50
2019-03-29T18:24:20.343Z,13.40
2019-03-29T18:26:48.789Z,13.30
2019-03-29T18:29:18.616Z,13.20
2019-03-29T18:31:47.122Z,13.10
2019-03-29T18:34:15.734Z,12.90
2019-03-29T18:36:46.020Z,12.80
2019-03-29T18:39:14.472Z,12.70
2019-03-29T18:41:42.917Z,12.60
2019-03-29T18:44:11.362Z,12.40
2019-03-29T18:46:44.813Z,12.40
2019-03-29T18:49:10.759Z,12.20
2019-03-29T18:51:39.331Z,12.10
2019-03-29T18:54:07.774Z,12.00
2019-03-29T18:56:37.769Z,11.90
2019-03-29T18:59:09.169Z,11.80
2019-03-29T19:01:40.156Z,11.70
2019-03-29T19:04:10.232Z,11.60
2019-03-29T19:06:41.772Z,11.50
2019-03-29T19:09:10.894Z,11.40
2019-03-29T19:11:39.357Z,11.30
2019-03-29T19:14:07.886Z,11.20
2019-03-29T19:16:36.408Z,11.10
2019-03-29T19:19:14.113Z,11.00
2019-03-29T19:21:42.559Z,11.00
2019-03-29T19:24:11.032Z,10.90
2019-03-29T19:26:39.480Z,10.80
2019-03-29T19:29:08.162Z,10.80
2019-03-29T19:31:36.626Z,10.70
2019-03-29T19:34:06.127Z,10.60
2019-03-29T19:36:34.651Z,10.60
2019-03-29T19:39:04.475Z,10.50
2019-03-29T19:41:32.927Z,10.40
2019-03-29T19:44:01.375Z,10.40
2019-03-29T19:46:29.831Z,10.30
2019-03-29T19:48:59.540Z,10.30
2019-03-29T19:51:28.438Z,10.20
2019-03-29T19:54:07.166Z,10.20
2019-03-29T19:56:28.197Z,10.00
2019-03-29T19:58:57.079Z,9.90
2019-03-29T20:01:25.563Z,9.80
2019-03-29T20:03:53.993Z,9.80
2019-03-29T20:06:25.659Z,9.70
2019-03-29T20:08:53.151Z,9.60
2019-03-29T20:11:21.603Z,9.60
2019-03-29T20:13:51.684Z,9.50
2019-03-29T20:16:20.125Z,9.50
2019-03-29T20:18:48.563Z,9.40
2019-03-29T20:21:17.010Z,9.40
2019-03-29T20:23:45.455Z,9.30
2019-03-29T20:26:13.981Z,9.30
2019-03-29T20:28:42.446Z,9.20
2019-03-29T20:31:10.874Z,9.20
2019-03-29T20:33:40.596Z,9.10
2019-03-29T20:36:09.769Z,9.10
2019-03-29T20:38:38.229Z,9.00
2019-03-29T20:41:09.388Z,8.90
2019-03-29T20:43:37.815Z,8.80
2019-03-29T20:46:08.541Z,8.80
2019-03-29T20:48:39.907Z,8.70
2019-03-29T20:51:10.380Z,8.70
2019-03-29T20:53:38.859Z,8.60
2019-03-29T20:56:08.217Z,8.60
2019-03-29T20:58:36.665Z,8.50
2019-03-29T21:01:05.103Z,8.50
2019-03-29T21:03:38.676Z,8.40
2019-03-29T21:06:08.445Z,8.40
2019-03-29T21:08:36.934Z,8.30
2019-03-29T21:11:05.366Z,8.30
2019-03-29T21:13:33.809Z,8.30
2019-03-29T21:16:05.963Z,8.30
2019-03-29T21:18:38.715Z,8.20
2019-03-29T21:21:07.148Z,8.20
2019-03-29T21:23:35.582Z,8.20
2019-03-29T21:26:05.567Z,8.10
2019-03-29T21:28:35.128Z,8.10
2019-03-29T21:31:04.175Z,8.10
2019-03-29T21:33:32.690Z,8.00
2019-03-29T21:36:01.126Z,8.00
2019-03-29T21:38:29.570Z,7.90
2019-03-29T21:40:58.046Z,7.80
2019-03-29T21:43:29.159Z,7.80
2019-03-29T21:45:57.598Z,7.80
2019-03-29T21:48:28.940Z,7.80
2019-03-29T21:50:56.202Z,7.80
2019-03-29T21:53:27.653Z,7.80
2019-03-29T21:55:56.102Z,7.80
2019-03-29T21:58:26.084Z,7.70
2019-03-29T22:00:55.988Z,7.70
2019-03-29T22:03:24.436Z,7.70
2019-03-29T22:05:53.122Z,7.70
2019-03-29T22:08:21.588Z,7.70
2019-03-29T22:10:50.034Z,7.60
2019-03-29T22:13:18.500Z,7.60
2019-03-29T22:15:47.177Z,7.60
2019-03-29T22:18:15.766Z,7.60
2019-03-29T22:20:44.197Z,7.60
2019-03-29T22:23:12.645Z,7.50
2019-03-29T22:25:41.096Z,7.50
2019-03-29T22:28:11.077Z,7.50
2019-03-29T22:30:39.519Z,7.50
2019-03-29T22:33:07.964Z,7.50
2019-03-29T22:35:36.490Z,7.50
2019-03-29T22:38:06.489Z,7.50
2019-03-29T22:40:34.930Z,7.50
2019-03-29T22:43:03.385Z,7.50
2019-03-29T22:45:31.814Z,7.50
2019-03-29T22:48:00.262Z,7.50
2019-03-29T22:50:28.712Z,7.50
2019-03-29T22:52:57.149Z,7.40
2019-03-29T22:55:25.623Z,7.40
2019-03-29T22:57:54.145Z,7.30
2019-03-29T23:00:30.222Z,7.30
2019-03-29T23:02:58.927Z,7.20
2019-03-29T23:05:27.387Z,7.20
2019-03-29T23:07:55.813Z,7.20
2019-03-29T23:10:25.213Z,7.20
2019-03-29T23:12:53.666Z,7.20
2019-03-29T23:15:22.374Z,7.20
2019-03-29T23:17:50.818Z,7.10
2019-03-29T23:20:19.247Z,7.10
2019-03-29T23:22:49.287Z,7.10
2019-03-29T23:25:17.803Z,7.00
2019-03-29T23:27:46.249Z,7.00
2019-03-29T23:30:16.143Z,6.90
2019-03-29T23:32:44.582Z,6.90
2019-03-29T23:35:13.555Z,6.90
2019-03-29T23:37:41.998Z,6.80
2019-03-29T23:40:10.677Z,6.80
2019-03-29T23:42:39.109Z,6.70
2019-03-29T23:45:08.109Z,6.70
2019-03-29T23:47:36.537Z,6.70
2019-03-29T23:50:05.836Z,6.60
2019-03-29T23:52:34.278Z,6.60
2019-03-29T23:55:02.725Z,6.60
2019-03-29T23:57:31.163Z,6.50
2019-03-29T23:59:59.615Z,6.50
